sensor_id;sensor_type;location;lat;lon;timestamp;P1;durP1;ratioP1;P2;durP2;ratioP2
16845;SDS011;8539;53.188;8.696;2024-02-04T00:02:16;19.45;;;2.97;;
16845;SDS011;8539;53.188;8.696;2024-02-04T00:04:47;16.05;;;3.53;;
16845;SDS011;8539;53.188;8.696;2024-02-04T00:07:14;14.38;;;2.60;;
16845;SDS011;8539;53.188;8.696;2024-02-04T00:09:42;24.05;;;5.95;;
16845;SDS011;8539;53.188;8.696;2024-02-04T00:12:10;12.98;;;4.05;;
16845;SDS011;8539;53.188;8.696;2024-02-04T00:14:38;17.88;;;3.80;;
16845;SDS011;8539;53.188;8.696;2024-02-04T00:17:05;13.07;;;3.67;;
16845;SDS011;8539;53.188;8.696;2024-02-04T00:19:32;11.85;;;4.07;;
16845;SDS011;8539;53.188;8.696;2024-02-04T00:22:00;22.13;;;4.07;;
16845;SDS011;8539;53.188;8.696;2024-02-04T00:24:27;20.40;;;4.03;;
16845;SDS011;8539;53.188;8.696;2024-02-04T00:26:55;17.23;;;3.88;;
16845;SDS011;8539;53.188;8.696;2024-02-04T00:29:22;13.98;;;4.07;;
16845;SDS011;8539;53.188;8.696;2024-02-04T00:31:49;15.23;;;4.88;;
16845;SDS011;8539;53.188;8.696;2024-02-04T00:34:18;21.10;;;3.97;;
16845;SDS011;8539;53.188;8.696;2024-02-04T00:36:45;12.52;;;4.75;;
16845;SDS011;8539;53.188;8.696;2024-02-04T00:39:12;17.08;;;4.07;;
16845;SDS011;8539;53.188;8.696;2024-02-04T00:41:39;15.20;;;4.30;;
16845;SDS011;8539;53.188;8.696;2024-02-04T00:44:06;18.50;;;3.67;;
16845;SDS011;8539;53.188;8.696;2024-02-04T00:46:34;13.35;;;4.80;;
16845;SDS011;8539;53.188;8.696;2024-02-04T00:49:01;21.13;;;5.13;;
16845;SDS011;8539;53.188;8.696;2024-02-04T00:51:28;29.05;;;5.10;;
16845;SDS011;8539;53.188;8.696;2024-02-04T00:53:56;14.60;;;5.63;;
16845;SDS011;8539;53.188;8.696;2024-02-04T00:56:23;16.75;;;4.38;;
16845;SDS011;8539;53.188;8.696;2024-02-04T00:58:51;16.67;;;7.15;;
16845;SDS011;8539;53.188;8.696;2024-02-04T01:01:18;9.65;;;4.35;;
16845;SDS011;8539;53.188;8.696;2024-02-04T01:03:48;13.90;;;5.45;;
16845;SDS011;8539;53.188;8.696;2024-02-04T01:06:16;16.58;;;4.90;;
16845;SDS011;8539;53.188;8.696;2024-02-04T01:08:43;14.43;;;5.38;;
16845;SDS011;8539;53.188;8.696;2024-02-04T01:11:11;14.98;;;5.40;;
16845;SDS011;8539;53.188;8.696;2024-02-04T01:13:38;18.50;;;5.57;;
16845;SDS011;8539;53.188;8.696;2024-02-04T01:16:06;18.67;;;6.43;;
16845;SDS011;8539;53.188;8.696;2024-02-04T01:18:33;22.20;;;5.93;;
16845;SDS011;8539;53.188;8.696;2024-02-04T01:21:01;17.55;;;5.90;;
16845;SDS011;8539;53.188;8.696;2024-02-04T01:23:29;25.13;;;5.50;;
16845;SDS011;8539;53.188;8.696;2024-02-04T01:25:56;15.02;;;6.10;;
16845;SDS011;8539;53.188;8.696;2024-02-04T01:28:24;15.25;;;6.10;;
16845;SDS011;8539;53.188;8.696;2024-02-04T01:30:51;22.88;;;6.75;;
16845;SDS011;8539;53.188;8.696;2024-02-04T01:33:19;16.52;;;6.28;;
16845;SDS011;8539;53.188;8.696;2024-02-04T01:35:46;19.83;;;6.28;;
16845;SDS011;8539;53.188;8.696;2024-02-04T01:38:14;16.98;;;6.43;;
16845;SDS011;8539;53.188;8.696;2024-02-04T01:40:42;16.95;;;7.10;;
16845;SDS011;8539;53.188;8.696;2024-02-04T01:43:09;14.55;;;5.65;;
16845;SDS011;8539;53.188;8.696;2024-02-04T01:45:37;15.27;;;7.50;;
16845;SDS011;8539;53.188;8.696;2024-02-04T01:48:04;22.65;;;7.75;;
16845;SDS011;8539;53.188;8.696;2024-02-04T01:50:32;19.33;;;6.60;;
16845;SDS011;8539;53.188;8.696;2024-02-04T01:53:00;16.45;;;6.32;;
16845;SDS011;8539;53.188;8.696;2024-02-04T01:55:27;18.33;;;8.25;;
16845;SDS011;8539;53.188;8.696;2024-02-04T01:57:57;20.42;;;7.15;;
16845;SDS011;8539;53.188;8.696;2024-02-04T02:00:24;15.48;;;8.07;;
16845;SDS011;8539;53.188;8.696;2024-02-04T02:02:52;19.08;;;8.68;;
16845;SDS011;8539;53.188;8.696;2024-02-04T02:05:20;13.57;;;7.28;;
16845;SDS011;8539;53.188;8.696;2024-02-04T02:07:47;22.55;;;8.20;;
16845;SDS011;8539;53.188;8.696;2024-02-04T02:10:18;17.90;;;8.15;;
16845;SDS011;8539;53.188;8.696;2024-02-04T02:12:59;18.20;;;8.02;;
16845;SDS011;8539;53.188;8.696;2024-02-04T02:15:40;19.02;;;7.20;;
16845;SDS011;8539;53.188;8.696;2024-02-04T02:18:23;24.85;;;8.68;;
16845;SDS011;8539;53.188;8.696;2024-02-04T02:24:38;20.13;;;9.60;;
16845;SDS011;8539;53.188;8.696;2024-02-04T02:27:01;19.50;;;7.88;;
16845;SDS011;8539;53.188;8.696;2024-02-04T02:29:29;23.02;;;8.20;;
16845;SDS011;8539;53.188;8.696;2024-02-04T02:31:56;16.73;;;8.60;;
16845;SDS011;8539;53.188;8.696;2024-02-04T02:34:24;13.73;;;8.23;;
16845;SDS011;8539;53.188;8.696;2024-02-04T02:42:34;24.40;;;8.60;;
16845;SDS011;8539;53.188;8.696;2024-02-04T02:45:04;19.60;;;8.52;;
16845;SDS011;8539;53.188;8.696;2024-02-04T02:47:33;22.50;;;9.02;;
16845;SDS011;8539;53.188;8.696;2024-02-04T02:50:00;17.50;;;8.25;;
16845;SDS011;8539;53.188;8.696;2024-02-04T02:52:28;16.70;;;8.30;;
16845;SDS011;8539;53.188;8.696;2024-02-04T02:54:55;29.92;;;10.20;;
16845;SDS011;8539;53.188;8.696;2024-02-04T02:57:23;16.50;;;8.45;;
16845;SDS011;8539;53.188;8.696;2024-02-04T02:59:50;15.95;;;8.45;;
16845;SDS011;8539;53.188;8.696;2024-02-04T03:02:17;18.42;;;7.45;;
16845;SDS011;8539;53.188;8.696;2024-02-04T03:04:45;29.02;;;8.77;;
16845;SDS011;8539;53.188;8.696;2024-02-04T03:07:12;15.35;;;7.32;;
16845;SDS011;8539;53.188;8.696;2024-02-04T03:09:39;18.67;;;6.53;;
16845;SDS011;8539;53.188;8.696;2024-02-04T03:12:07;25.75;;;7.65;;
16845;SDS011;8539;53.188;8.696;2024-02-04T03:14:34;15.43;;;6.90;;
16845;SDS011;8539;53.188;8.696;2024-02-04T03:17:02;24.17;;;6.82;;
16845;SDS011;8539;53.188;8.696;2024-02-04T03:19:29;32.38;;;8.80;;
16845;SDS011;8539;53.188;8.696;2024-02-04T03:22:03;22.02;;;10.32;;
16845;SDS011;8539;53.188;8.696;2024-02-04T03:26:57;14.25;;;5.47;;
16845;SDS011;8539;53.188;8.696;2024-02-04T03:29:24;17.08;;;6.68;;
16845;SDS011;8539;53.188;8.696;2024-02-04T03:31:51;21.92;;;7.20;;
16845;SDS011;8539;53.188;8.696;2024-02-04T03:34:18;19.80;;;6.22;;
16845;SDS011;8539;53.188;8.696;2024-02-04T03:36:45;16.50;;;6.35;;
16845;SDS011;8539;53.188;8.696;2024-02-04T03:39:12;14.10;;;5.20;;
16845;SDS011;8539;53.188;8.696;2024-02-04T03:41:40;14.05;;;4.72;;
16845;SDS011;8539;53.188;8.696;2024-02-04T03:44:08;12.80;;;4.80;;
16845;SDS011;8539;53.188;8.696;2024-02-04T03:46:35;18.63;;;6.70;;
16845;SDS011;8539;53.188;8.696;2024-02-04T03:49:07;21.38;;;6.55;;
16845;SDS011;8539;53.188;8.696;2024-02-04T03:51:34;22.23;;;6.47;;
16845;SDS011;8539;53.188;8.696;2024-02-04T03:54:02;25.38;;;5.30;;
16845;SDS011;8539;53.188;8.696;2024-02-04T03:56:29;12.98;;;4.80;;
16845;SDS011;8539;53.188;8.696;2024-02-04T03:58:57;19.80;;;5.03;;
16845;SDS011;8539;53.188;8.696;2024-02-04T04:01:24;23.75;;;5.07;;
16845;SDS011;8539;53.188;8.696;2024-02-04T04:03:51;15.68;;;3.90;;
16845;SDS011;8539;53.188;8.696;2024-02-04T04:06:19;18.80;;;5.00;;
16845;SDS011;8539;53.188;8.696;2024-02-04T04:08:46;15.05;;;4.65;;
16845;SDS011;8539;53.188;8.696;2024-02-04T04:11:13;8.55;;;4.13;;
16845;SDS011;8539;53.188;8.696;2024-02-04T04:13:40;15.20;;;4.57;;
16845;SDS011;8539;53.188;8.696;2024-02-04T04:16:07;13.68;;;5.60;;
16845;SDS011;8539;53.188;8.696;2024-02-04T04:18:35;17.15;;;4.93;;
16845;SDS011;8539;53.188;8.696;2024-02-04T04:21:02;19.08;;;6.05;;
16845;SDS011;8539;53.188;8.696;2024-02-04T04:23:29;14.75;;;4.63;;
16845;SDS011;8539;53.188;8.696;2024-02-04T04:25:57;16.90;;;4.20;;
16845;SDS011;8539;53.188;8.696;2024-02-04T04:28:24;12.30;;;3.50;;
16845;SDS011;8539;53.188;8.696;2024-02-04T04:30:51;22.23;;;5.75;;
16845;SDS011;8539;53.188;8.696;2024-02-04T04:33:19;14.88;;;3.65;;
16845;SDS011;8539;53.188;8.696;2024-02-04T04:35:47;11.45;;;4.65;;
16845;SDS011;8539;53.188;8.696;2024-02-04T04:38:14;12.45;;;3.72;;
16845;SDS011;8539;53.188;8.696;2024-02-04T04:40:41;11.23;;;2.83;;
16845;SDS011;8539;53.188;8.696;2024-02-04T04:43:09;17.13;;;4.43;;
16845;SDS011;8539;53.188;8.696;2024-02-04T04:45:36;18.88;;;4.05;;
16845;SDS011;8539;53.188;8.696;2024-02-04T04:48:03;17.27;;;3.88;;
16845;SDS011;8539;53.188;8.696;2024-02-04T04:50:31;11.40;;;3.13;;
16845;SDS011;8539;53.188;8.696;2024-02-04T04:52:59;8.20;;;3.17;;
16845;SDS011;8539;53.188;8.696;2024-02-04T04:55:26;15.88;;;3.25;;
16845;SDS011;8539;53.188;8.696;2024-02-04T04:57:53;16.30;;;3.67;;
16845;SDS011;8539;53.188;8.696;2024-02-04T05:00:21;10.15;;;2.60;;
16845;SDS011;8539;53.188;8.696;2024-02-04T05:02:48;16.92;;;3.67;;
16845;SDS011;8539;53.188;8.696;2024-02-04T05:05:16;11.50;;;3.35;;
16845;SDS011;8539;53.188;8.696;2024-02-04T05:07:43;15.50;;;4.80;;
16845;SDS011;8539;53.188;8.696;2024-02-04T05:10:13;10.15;;;2.97;;
16845;SDS011;8539;53.188;8.696;2024-02-04T05:12:40;19.88;;;3.85;;
16845;SDS011;8539;53.188;8.696;2024-02-04T05:15:08;14.65;;;3.25;;
16845;SDS011;8539;53.188;8.696;2024-02-04T05:17:35;16.85;;;3.80;;
16845;SDS011;8539;53.188;8.696;2024-02-04T05:20:03;11.77;;;2.67;;
16845;SDS011;8539;53.188;8.696;2024-02-04T05:22:31;10.07;;;4.13;;
16845;SDS011;8539;53.188;8.696;2024-02-04T05:24:58;15.73;;;3.95;;
16845;SDS011;8539;53.188;8.696;2024-02-04T05:27:25;23.52;;;4.55;;
16845;SDS011;8539;53.188;8.696;2024-02-04T05:29:53;17.10;;;2.90;;
16845;SDS011;8539;53.188;8.696;2024-02-04T05:32:20;21.88;;;3.20;;
16845;SDS011;8539;53.188;8.696;2024-02-04T05:34:48;10.23;;;3.65;;
16845;SDS011;8539;53.188;8.696;2024-02-04T05:37:15;17.05;;;4.07;;
16845;SDS011;8539;53.188;8.696;2024-02-04T05:39:43;10.88;;;2.88;;
16845;SDS011;8539;53.188;8.696;2024-02-04T05:42:10;8.93;;;2.42;;
16845;SDS011;8539;53.188;8.696;2024-02-04T05:44:37;15.57;;;3.78;;
16845;SDS011;8539;53.188;8.696;2024-02-04T05:47:05;19.02;;;2.88;;
16845;SDS011;8539;53.188;8.696;2024-02-04T05:49:32;9.73;;;3.40;;
16845;SDS011;8539;53.188;8.696;2024-02-04T05:51:59;13.50;;;2.30;;
16845;SDS011;8539;53.188;8.696;2024-02-04T05:54:27;11.60;;;2.70;;
16845;SDS011;8539;53.188;8.696;2024-02-04T05:56:54;14.48;;;3.17;;
16845;SDS011;8539;53.188;8.696;2024-02-04T05:59:21;12.60;;;2.92;;
16845;SDS011;8539;53.188;8.696;2024-02-04T06:01:48;7.95;;;2.90;;
16845;SDS011;8539;53.188;8.696;2024-02-04T06:04:16;16.73;;;2.65;;
16845;SDS011;8539;53.188;8.696;2024-02-04T06:06:43;11.23;;;2.53;;
16845;SDS011;8539;53.188;8.696;2024-02-04T06:09:10;13.38;;;2.58;;
16845;SDS011;8539;53.188;8.696;2024-02-04T06:11:38;13.90;;;3.58;;
16845;SDS011;8539;53.188;8.696;2024-02-04T06:14:05;17.52;;;2.70;;
16845;SDS011;8539;53.188;8.696;2024-02-04T06:16:33;19.10;;;4.32;;
16845;SDS011;8539;53.188;8.696;2024-02-04T06:19:01;15.82;;;3.28;;
16845;SDS011;8539;53.188;8.696;2024-02-04T06:21:28;10.23;;;3.00;;
16845;SDS011;8539;53.188;8.696;2024-02-04T06:23:56;10.85;;;2.60;;
16845;SDS011;8539;53.188;8.696;2024-02-04T06:26:23;11.93;;;3.28;;
16845;SDS011;8539;53.188;8.696;2024-02-04T06:28:51;7.78;;;2.33;;
16845;SDS011;8539;53.188;8.696;2024-02-04T06:31:18;11.80;;;2.65;;
16845;SDS011;8539;53.188;8.696;2024-02-04T06:33:46;21.73;;;3.95;;
16845;SDS011;8539;53.188;8.696;2024-02-04T06:36:13;7.95;;;2.78;;
16845;SDS011;8539;53.188;8.696;2024-02-04T06:38:41;17.08;;;3.38;;
16845;SDS011;8539;53.188;8.696;2024-02-04T06:41:08;13.20;;;3.53;;
16845;SDS011;8539;53.188;8.696;2024-02-04T06:43:39;8.95;;;2.65;;
16845;SDS011;8539;53.188;8.696;2024-02-04T06:46:06;20.50;;;4.97;;
16845;SDS011;8539;53.188;8.696;2024-02-04T06:48:34;16.63;;;4.80;;
16845;SDS011;8539;53.188;8.696;2024-02-04T06:51:01;20.80;;;3.80;;
16845;SDS011;8539;53.188;8.696;2024-02-04T06:53:29;14.25;;;4.32;;
16845;SDS011;8539;53.188;8.696;2024-02-04T06:55:56;12.52;;;4.80;;
16845;SDS011;8539;53.188;8.696;2024-02-04T06:58:23;12.43;;;4.22;;
16845;SDS011;8539;53.188;8.696;2024-02-04T07:00:51;20.20;;;4.28;;
16845;SDS011;8539;53.188;8.696;2024-02-04T07:03:18;16.58;;;4.35;;
16845;SDS011;8539;53.188;8.696;2024-02-04T07:05:46;15.05;;;5.68;;
16845;SDS011;8539;53.188;8.696;2024-02-04T07:08:14;12.68;;;5.25;;
16845;SDS011;8539;53.188;8.696;2024-02-04T07:10:41;14.52;;;5.18;;
16845;SDS011;8539;53.188;8.696;2024-02-04T07:13:09;13.43;;;4.65;;
16845;SDS011;8539;53.188;8.696;2024-02-04T07:15:38;18.83;;;4.35;;
16845;SDS011;8539;53.188;8.696;2024-02-04T07:18:06;21.13;;;7.03;;
16845;SDS011;8539;53.188;8.696;2024-02-04T07:20:34;10.77;;;4.78;;
16845;SDS011;8539;53.188;8.696;2024-02-04T07:23:01;16.05;;;5.25;;
16845;SDS011;8539;53.188;8.696;2024-02-04T07:25:29;22.48;;;7.53;;
16845;SDS011;8539;53.188;8.696;2024-02-04T07:27:56;21.10;;;4.90;;
16845;SDS011;8539;53.188;8.696;2024-02-04T07:30:25;17.08;;;6.13;;
16845;SDS011;8539;53.188;8.696;2024-02-04T07:32:52;19.10;;;4.88;;
16845;SDS011;8539;53.188;8.696;2024-02-04T07:35:20;26.98;;;6.35;;
16845;SDS011;8539;53.188;8.696;2024-02-04T07:37:47;10.32;;;4.35;;
16845;SDS011;8539;53.188;8.696;2024-02-04T07:40:15;16.70;;;5.22;;
16845;SDS011;8539;53.188;8.696;2024-02-04T07:42:42;24.85;;;6.22;;
16845;SDS011;8539;53.188;8.696;2024-02-04T07:45:10;17.30;;;5.65;;
16845;SDS011;8539;53.188;8.696;2024-02-04T07:47:37;21.23;;;4.55;;
16845;SDS011;8539;53.188;8.696;2024-02-04T07:50:04;17.73;;;5.40;;
16845;SDS011;8539;53.188;8.696;2024-02-04T07:52:32;18.98;;;4.28;;
16845;SDS011;8539;53.188;8.696;2024-02-04T07:54:59;20.10;;;4.45;;
16845;SDS011;8539;53.188;8.696;2024-02-04T07:57:26;24.27;;;5.65;;
16845;SDS011;8539;53.188;8.696;2024-02-04T07:59:53;20.00;;;4.20;;
16845;SDS011;8539;53.188;8.696;2024-02-04T08:02:22;16.02;;;5.82;;
16845;SDS011;8539;53.188;8.696;2024-02-04T08:04:49;21.65;;;4.97;;
16845;SDS011;8539;53.188;8.696;2024-02-04T08:07:16;24.55;;;4.25;;
16845;SDS011;8539;53.188;8.696;2024-02-04T08:09:44;11.82;;;3.65;;
16845;SDS011;8539;53.188;8.696;2024-02-04T08:12:12;15.63;;;3.70;;
16845;SDS011;8539;53.188;8.696;2024-02-04T08:14:39;19.77;;;3.38;;
16845;SDS011;8539;53.188;8.696;2024-02-04T08:17:06;20.33;;;4.63;;
16845;SDS011;8539;53.188;8.696;2024-02-04T08:19:33;15.45;;;4.00;;
16845;SDS011;8539;53.188;8.696;2024-02-04T08:22:01;11.20;;;3.63;;
16845;SDS011;8539;53.188;8.696;2024-02-04T08:24:29;13.30;;;3.60;;
16845;SDS011;8539;53.188;8.696;2024-02-04T08:26:58;13.70;;;3.33;;
16845;SDS011;8539;53.188;8.696;2024-02-04T08:29:26;17.55;;;3.85;;
16845;SDS011;8539;53.188;8.696;2024-02-04T08:31:53;17.52;;;3.50;;
16845;SDS011;8539;53.188;8.696;2024-02-04T08:34:20;14.57;;;3.05;;
16845;SDS011;8539;53.188;8.696;2024-02-04T08:36:50;12.18;;;4.72;;
16845;SDS011;8539;53.188;8.696;2024-02-04T08:39:18;12.90;;;3.38;;
16845;SDS011;8539;53.188;8.696;2024-02-04T08:41:45;14.20;;;5.25;;
16845;SDS011;8539;53.188;8.696;2024-02-04T08:44:12;17.52;;;3.10;;
16845;SDS011;8539;53.188;8.696;2024-02-04T08:46:57;12.32;;;3.47;;
16845;SDS011;8539;53.188;8.696;2024-02-04T08:49:24;16.33;;;2.72;;
16845;SDS011;8539;53.188;8.696;2024-02-04T08:51:52;13.00;;;2.70;;
16845;SDS011;8539;53.188;8.696;2024-02-04T08:54:19;18.75;;;3.13;;
16845;SDS011;8539;53.188;8.696;2024-02-04T08:56:46;15.65;;;3.30;;
16845;SDS011;8539;53.188;8.696;2024-02-04T08:59:13;11.90;;;3.03;;
16845;SDS011;8539;53.188;8.696;2024-02-04T09:01:41;13.50;;;3.63;;
16845;SDS011;8539;53.188;8.696;2024-02-04T09:04:08;18.30;;;3.25;;
16845;SDS011;8539;53.188;8.696;2024-02-04T09:06:35;9.80;;;2.92;;
16845;SDS011;8539;53.188;8.696;2024-02-04T09:09:02;10.38;;;3.05;;
16845;SDS011;8539;53.188;8.696;2024-02-04T09:11:29;11.60;;;2.92;;
16845;SDS011;8539;53.188;8.696;2024-02-04T09:13:56;19.52;;;3.47;;
16845;SDS011;8539;53.188;8.696;2024-02-04T09:16:23;15.63;;;3.25;;
16845;SDS011;8539;53.188;8.696;2024-02-04T09:18:50;12.60;;;4.07;;
16845;SDS011;8539;53.188;8.696;2024-02-04T09:21:17;21.65;;;2.30;;
16845;SDS011;8539;53.188;8.696;2024-02-04T09:23:45;12.88;;;2.88;;
16845;SDS011;8539;53.188;8.696;2024-02-04T09:26:12;23.67;;;4.10;;
16845;SDS011;8539;53.188;8.696;2024-02-04T09:28:45;24.33;;;3.78;;
16845;SDS011;8539;53.188;8.696;2024-02-04T09:31:12;20.05;;;3.90;;
16845;SDS011;8539;53.188;8.696;2024-02-04T09:33:39;15.48;;;3.47;;
16845;SDS011;8539;53.188;8.696;2024-02-04T09:36:07;21.35;;;3.83;;
16845;SDS011;8539;53.188;8.696;2024-02-04T09:38:35;13.27;;;3.40;;
16845;SDS011;8539;53.188;8.696;2024-02-04T09:41:02;16.17;;;3.75;;
16845;SDS011;8539;53.188;8.696;2024-02-04T09:43:31;17.77;;;4.40;;
16845;SDS011;8539;53.188;8.696;2024-02-04T09:46:00;12.70;;;3.08;;
16845;SDS011;8539;53.188;8.696;2024-02-04T09:48:31;19.85;;;4.22;;
16845;SDS011;8539;53.188;8.696;2024-02-04T09:51:00;15.82;;;2.92;;
16845;SDS011;8539;53.188;8.696;2024-02-04T09:53:35;18.77;;;6.13;;
16845;SDS011;8539;53.188;8.696;2024-02-04T09:56:03;12.60;;;3.30;;
16845;SDS011;8539;53.188;8.696;2024-02-04T09:58:33;13.00;;;3.60;;
16845;SDS011;8539;53.188;8.696;2024-02-04T10:01:01;16.20;;;3.40;;
16845;SDS011;8539;53.188;8.696;2024-02-04T10:03:29;15.50;;;3.50;;
16845;SDS011;8539;53.188;8.696;2024-02-04T10:05:57;15.35;;;2.95;;
16845;SDS011;8539;53.188;8.696;2024-02-04T10:08:24;17.08;;;4.85;;
16845;SDS011;8539;53.188;8.696;2024-02-04T10:10:52;19.33;;;4.43;;
16845;SDS011;8539;53.188;8.696;2024-02-04T10:13:24;14.48;;;3.25;;
16845;SDS011;8539;53.188;8.696;2024-02-04T10:15:52;27.08;;;4.10;;
16845;SDS011;8539;53.188;8.696;2024-02-04T10:18:19;13.63;;;3.78;;
16845;SDS011;8539;53.188;8.696;2024-02-04T10:20:48;15.32;;;3.33;;
16845;SDS011;8539;53.188;8.696;2024-02-04T10:23:15;12.30;;;3.60;;
16845;SDS011;8539;53.188;8.696;2024-02-04T10:25:42;16.48;;;3.78;;
16845;SDS011;8539;53.188;8.696;2024-02-04T10:28:09;16.08;;;4.18;;
16845;SDS011;8539;53.188;8.696;2024-02-04T10:30:38;14.27;;;3.75;;
16845;SDS011;8539;53.188;8.696;2024-02-04T10:33:06;11.30;;;4.13;;
16845;SDS011;8539;53.188;8.696;2024-02-04T10:35:33;15.40;;;3.88;;
16845;SDS011;8539;53.188;8.696;2024-02-04T10:38:00;17.70;;;4.47;;
16845;SDS011;8539;53.188;8.696;2024-02-04T10:40:28;11.57;;;2.78;;
16845;SDS011;8539;53.188;8.696;2024-02-04T10:43:00;18.30;;;4.55;;
16845;SDS011;8539;53.188;8.696;2024-02-04T10:45:32;20.40;;;4.20;;
16845;SDS011;8539;53.188;8.696;2024-02-04T10:48:00;13.23;;;3.45;;
16845;SDS011;8539;53.188;8.696;2024-02-04T10:50:28;17.15;;;4.25;;
16845;SDS011;8539;53.188;8.696;2024-02-04T10:53:00;18.27;;;3.88;;
16845;SDS011;8539;53.188;8.696;2024-02-04T10:55:33;10.57;;;3.17;;
16845;SDS011;8539;53.188;8.696;2024-02-04T10:58:08;9.32;;;3.60;;
16845;SDS011;8539;53.188;8.696;2024-02-04T11:00:39;7.55;;;2.75;;
16845;SDS011;8539;53.188;8.696;2024-02-04T11:03:07;12.15;;;3.42;;
16845;SDS011;8539;53.188;8.696;2024-02-04T11:05:35;17.05;;;3.53;;
16845;SDS011;8539;53.188;8.696;2024-02-04T11:08:05;13.57;;;3.42;;
16845;SDS011;8539;53.188;8.696;2024-02-04T11:10:33;16.23;;;3.00;;
16845;SDS011;8539;53.188;8.696;2024-02-04T11:13:01;16.88;;;2.88;;
16845;SDS011;8539;53.188;8.696;2024-02-04T11:15:32;10.65;;;1.83;;
16845;SDS011;8539;53.188;8.696;2024-02-04T11:18:39;9.18;;;2.67;;
16845;SDS011;8539;53.188;8.696;2024-02-04T11:24:05;16.52;;;3.00;;
16845;SDS011;8539;53.188;8.696;2024-02-04T11:26:44;12.90;;;2.55;;
16845;SDS011;8539;53.188;8.696;2024-02-04T11:29:11;11.55;;;3.03;;
16845;SDS011;8539;53.188;8.696;2024-02-04T11:31:39;10.73;;;3.47;;
16845;SDS011;8539;53.188;8.696;2024-02-04T11:34:07;8.25;;;3.25;;
16845;SDS011;8539;53.188;8.696;2024-02-04T11:36:38;13.18;;;3.33;;
16845;SDS011;8539;53.188;8.696;2024-02-04T11:39:13;8.88;;;2.80;;
16845;SDS011;8539;53.188;8.696;2024-02-04T11:41:45;12.48;;;3.50;;
16845;SDS011;8539;53.188;8.696;2024-02-04T11:44:23;9.38;;;2.20;;
16845;SDS011;8539;53.188;8.696;2024-02-04T11:46:51;19.65;;;2.97;;
16845;SDS011;8539;53.188;8.696;2024-02-04T11:49:19;13.68;;;3.45;;
16845;SDS011;8539;53.188;8.696;2024-02-04T11:51:51;10.45;;;3.25;;
16845;SDS011;8539;53.188;8.696;2024-02-04T11:54:22;11.68;;;4.38;;
16845;SDS011;8539;53.188;8.696;2024-02-04T11:56:49;12.30;;;3.95;;
16845;SDS011;8539;53.188;8.696;2024-02-04T11:59:20;11.20;;;3.10;;
16845;SDS011;8539;53.188;8.696;2024-02-04T12:01:55;12.38;;;2.72;;
16845;SDS011;8539;53.188;8.696;2024-02-04T12:04:27;16.48;;;2.72;;
16845;SDS011;8539;53.188;8.696;2024-02-04T12:06:55;10.38;;;2.85;;
16845;SDS011;8539;53.188;8.696;2024-02-04T12:09:22;10.10;;;2.47;;
16845;SDS011;8539;53.188;8.696;2024-02-04T12:11:51;15.52;;;2.58;;
16845;SDS011;8539;53.188;8.696;2024-02-04T12:14:20;12.10;;;2.65;;
16845;SDS011;8539;53.188;8.696;2024-02-04T12:16:48;13.77;;;2.75;;
16845;SDS011;8539;53.188;8.696;2024-02-04T12:19:15;13.50;;;3.63;;
16845;SDS011;8539;53.188;8.696;2024-02-04T12:21:43;9.18;;;2.65;;
16845;SDS011;8539;53.188;8.696;2024-02-04T12:24:11;19.67;;;3.08;;
16845;SDS011;8539;53.188;8.696;2024-02-04T12:26:38;10.75;;;2.63;;
16845;SDS011;8539;53.188;8.696;2024-02-04T12:29:06;21.42;;;2.88;;
16845;SDS011;8539;53.188;8.696;2024-02-04T12:31:34;9.73;;;3.35;;
16845;SDS011;8539;53.188;8.696;2024-02-04T12:34:01;11.65;;;2.40;;
16845;SDS011;8539;53.188;8.696;2024-02-04T12:36:30;13.40;;;3.13;;
16845;SDS011;8539;53.188;8.696;2024-02-04T12:38:58;11.63;;;2.28;;
16845;SDS011;8539;53.188;8.696;2024-02-04T12:41:27;11.00;;;2.47;;
16845;SDS011;8539;53.188;8.696;2024-02-04T12:43:59;6.25;;;2.45;;
16845;SDS011;8539;53.188;8.696;2024-02-04T12:46:31;6.90;;;2.33;;
16845;SDS011;8539;53.188;8.696;2024-02-04T12:48:59;14.63;;;3.33;;
16845;SDS011;8539;53.188;8.696;2024-02-04T12:51:32;12.25;;;3.42;;
16845;SDS011;8539;53.188;8.696;2024-02-04T12:54:06;7.47;;;2.75;;
16845;SDS011;8539;53.188;8.696;2024-02-04T12:59:27;10.63;;;2.22;;
16845;SDS011;8539;53.188;8.696;2024-02-04T13:04:32;12.68;;;2.50;;
16845;SDS011;8539;53.188;8.696;2024-02-04T13:07:01;9.20;;;2.85;;
16845;SDS011;8539;53.188;8.696;2024-02-04T13:09:28;8.48;;;2.13;;
16845;SDS011;8539;53.188;8.696;2024-02-04T13:12:02;9.68;;;2.83;;
16845;SDS011;8539;53.188;8.696;2024-02-04T13:14:34;12.00;;;2.80;;
16845;SDS011;8539;53.188;8.696;2024-02-04T13:17:05;9.60;;;2.70;;
16845;SDS011;8539;53.188;8.696;2024-02-04T13:19:33;11.25;;;2.65;;
16845;SDS011;8539;53.188;8.696;2024-02-04T13:22:01;17.48;;;4.70;;
16845;SDS011;8539;53.188;8.696;2024-02-04T13:24:30;19.75;;;2.75;;
16845;SDS011;8539;53.188;8.696;2024-02-04T13:26:57;11.00;;;2.08;;
16845;SDS011;8539;53.188;8.696;2024-02-04T13:29:30;13.48;;;2.30;;
16845;SDS011;8539;53.188;8.696;2024-02-04T13:31:57;14.38;;;3.17;;
16845;SDS011;8539;53.188;8.696;2024-02-04T13:34:24;8.38;;;2.05;;
16845;SDS011;8539;53.188;8.696;2024-02-04T13:47:59;10.57;;;2.33;;
16845;SDS011;8539;53.188;8.696;2024-02-04T13:50:26;7.65;;;2.70;;
16845;SDS011;8539;53.188;8.696;2024-02-04T13:52:53;12.80;;;2.85;;
16845;SDS011;8539;53.188;8.696;2024-02-04T13:55:21;12.25;;;2.60;;
16845;SDS011;8539;53.188;8.696;2024-02-04T13:57:48;6.68;;;2.35;;
16845;SDS011;8539;53.188;8.696;2024-02-04T14:00:16;6.70;;;2.28;;
16845;SDS011;8539;53.188;8.696;2024-02-04T14:02:44;15.80;;;3.67;;
16845;SDS011;8539;53.188;8.696;2024-02-04T14:05:11;9.77;;;2.50;;
16845;SDS011;8539;53.188;8.696;2024-02-04T14:07:38;10.63;;;2.40;;
16845;SDS011;8539;53.188;8.696;2024-02-04T14:10:05;15.77;;;2.33;;
16845;SDS011;8539;53.188;8.696;2024-02-04T14:12:34;10.18;;;2.55;;
16845;SDS011;8539;53.188;8.696;2024-02-04T14:15:03;5.88;;;2.72;;
16845;SDS011;8539;53.188;8.696;2024-02-04T14:17:30;14.57;;;2.95;;
16845;SDS011;8539;53.188;8.696;2024-02-04T14:19:57;14.15;;;1.92;;
16845;SDS011;8539;53.188;8.696;2024-02-04T14:22:25;13.13;;;3.95;;
16845;SDS011;8539;53.188;8.696;2024-02-04T14:24:54;13.40;;;2.58;;
16845;SDS011;8539;53.188;8.696;2024-02-04T14:39:54;7.70;;;2.60;;
16845;SDS011;8539;53.188;8.696;2024-02-04T14:42:24;6.97;;;2.38;;
16845;SDS011;8539;53.188;8.696;2024-02-04T14:44:51;11.35;;;2.60;;
16845;SDS011;8539;53.188;8.696;2024-02-04T14:47:18;11.38;;;3.30;;
16845;SDS011;8539;53.188;8.696;2024-02-04T14:49:45;8.73;;;2.63;;
16845;SDS011;8539;53.188;8.696;2024-02-04T14:52:13;9.10;;;2.60;;
16845;SDS011;8539;53.188;8.696;2024-02-04T14:54:41;11.55;;;2.67;;
16845;SDS011;8539;53.188;8.696;2024-02-04T14:57:08;15.05;;;2.58;;
16845;SDS011;8539;53.188;8.696;2024-02-04T14:59:35;16.90;;;3.15;;
16845;SDS011;8539;53.188;8.696;2024-02-04T15:02:04;8.77;;;2.88;;
16845;SDS011;8539;53.188;8.696;2024-02-04T15:04:31;6.25;;;2.55;;
16845;SDS011;8539;53.188;8.696;2024-02-04T15:06:59;8.82;;;2.45;;
16845;SDS011;8539;53.188;8.696;2024-02-04T15:09:33;8.77;;;2.80;;
16845;SDS011;8539;53.188;8.696;2024-02-04T15:12:01;12.38;;;2.85;;
16845;SDS011;8539;53.188;8.696;2024-02-04T15:14:28;10.77;;;2.85;;
16845;SDS011;8539;53.188;8.696;2024-02-04T15:16:56;8.63;;;2.75;;
16845;SDS011;8539;53.188;8.696;2024-02-04T15:19:24;12.05;;;2.40;;
16845;SDS011;8539;53.188;8.696;2024-02-04T15:21:55;13.52;;;3.25;;
16845;SDS011;8539;53.188;8.696;2024-02-04T15:24:22;12.00;;;3.20;;
16845;SDS011;8539;53.188;8.696;2024-02-04T15:26:49;9.20;;;2.60;;
16845;SDS011;8539;53.188;8.696;2024-02-04T15:29:19;13.00;;;3.50;;
16845;SDS011;8539;53.188;8.696;2024-02-04T15:31:47;6.53;;;3.00;;
16845;SDS011;8539;53.188;8.696;2024-02-04T15:34:15;8.45;;;2.20;;
16845;SDS011;8539;53.188;8.696;2024-02-04T15:36:43;7.00;;;2.53;;
16845;SDS011;8539;53.188;8.696;2024-02-04T15:39:11;11.05;;;3.78;;
16845;SDS011;8539;53.188;8.696;2024-02-04T15:41:38;7.93;;;2.38;;